Time;durP1;ratioP1;P1;durP2;ratioP2;P2;SDS_P1;SDS_P2;PMS_P1;PMS_P2;Temp;Humidity;BMP_temperature;BMP_pressure;BME280_temperature;BME280_humidity;BME280_pressure;Samples;Min_cycle;Max_cycle;Signal;HPM_P1;HPM_P2
2023/12/07 00:00:17;;;;;;;3.20;3.00;;;;;;;3.33;100.00;96936.91;5075752;28;20546;-53
2023/12/07 00:02:44;;;;;;;3.33;3.10;;;;;;;3.31;100.00;96943.97;5075805;28;20242;-53
2023/12/07 00:05:12;;;;;;;3.37;3.07;;;;;;;3.30;100.00;96937.06;5076080;28;20631;-53
2023/12/07 00:07:40;;;;;;;3.20;3.00;;;;;;;3.28;100.00;96944.16;5076201;28;20238;-52
2023/12/07 00:10:08;;;;;;;4.50;3.47;;;;;;;3.25;100.00;96945.19;5086341;28;20253;-54
2023/12/07 00:12:36;;;;;;;3.27;3.07;;;;;;;3.28;100.00;96938.94;5075971;28;20202;-52
2023/12/07 00:15:03;;;;;;;3.87;3.30;;;;;;;3.24;100.00;96947.91;5075850;28;20209;-54
2023/12/07 00:17:30;;;;;;;3.17;2.97;;;;;;;3.27;100.00;96942.47;5076097;28;20240;-53
2023/12/07 00:19:56;;;;;;;4.77;3.40;;;;;;;3.25;100.00;96941.75;5080679;28;20198;-51
2023/12/07 00:22:24;;;;;;;3.07;2.87;;;;;;;3.24;100.00;96938.28;5085861;28;20669;-51
2023/12/07 00:24:52;;;;;;;3.30;3.10;;;;;;;3.21;100.00;96929.78;5079115;28;20232;-53
2023/12/07 00:27:18;;;;;;;3.27;3.07;;;;;;;3.15;100.00;96927.53;5081050;28;20230;-52
2023/12/07 00:29:45;;;;;;;2.97;2.77;;;;;;;3.20;100.00;96925.47;5082668;28;20209;-52
2023/12/07 00:32:12;;;;;;;3.33;3.13;;;;;;;3.11;100.00;96924.28;5085524;28;20213;-52
2023/12/07 00:34:38;;;;;;;3.00;2.80;;;;;;;3.10;100.00;96924.34;5081628;28;20297;-53
2023/12/07 00:37:05;;;;;;;3.20;3.00;;;;;;;3.10;100.00;96924.34;5075740;28;20206;-53
2023/12/07 00:39:31;;;;;;;3.33;3.03;;;;;;;3.07;100.00;96919.31;5079806;28;20213;-54
2023/12/07 00:41:59;;;;;;;3.60;3.07;;;;;;;3.08;100.00;96921.84;5074857;28;20208;-52
2023/12/07 00:44:26;;;;;;;3.40;3.10;;;;;;;2.97;100.00;96929.47;5079943;28;20236;-53
2023/12/07 00:46:53;;;;;;;2.83;2.70;;;;;;;2.93;100.00;96923.59;5074525;28;20539;-54
2023/12/07 00:49:19;;;;;;;3.27;3.07;;;;;;;2.99;100.00;96933.66;5067792;28;20603;-53
2023/12/07 00:51:46;;;;;;;3.70;3.30;;;;;;;2.99;100.00;96933.66;5075438;28;20214;-53
2023/12/07 00:54:13;;;;;;;3.70;3.47;;;;;;;2.95;100.00;96931.31;5074752;28;20199;-53
2023/12/07 00:56:39;;;;;;;3.33;3.13;;;;;;;2.91;100.00;96937.66;5075225;28;20629;-53
2023/12/07 00:59:08;;;;;;;3.97;3.67;;;;;;;2.90;100.00;96943.81;5075145;28;20202;-51
2023/12/07 01:01:38;;;;;;;3.77;3.47;;;;;;;2.91;100.00;96941.09;5074865;28;20244;-51
2023/12/07 01:04:05;;;;;;;3.30;3.10;;;;;;;2.91;100.00;96942.88;5075909;28;20210;-52
2023/12/07 01:06:31;;;;;;;4.13;3.77;;;;;;;2.96;100.00;96931.25;5075122;28;20592;-53
2023/12/07 01:08:58;;;;;;;3.80;3.50;;;;;;;2.93;100.00;96928.81;5074854;28;20210;-53
2023/12/07 01:11:26;;;;;;;4.87;3.77;;;;;;;2.98;100.00;96928.53;5075205;28;20214;-52
2023/12/07 01:13:52;;;;;;;3.40;3.20;;;;;;;2.95;100.00;96920.88;5077438;28;20622;-52
2023/12/07 01:16:20;;;;;;;3.53;3.33;;;;;;;2.93;100.00;96927.97;5075159;28;20210;-52
2023/12/07 01:18:47;;;;;;;4.40;4.00;;;;;;;2.93;100.00;96936.66;5075520;28;20206;-54
2023/12/07 01:21:13;;;;;;;3.80;3.50;;;;;;;2.91;100.00;96935.88;5072650;28;20297;-54
2023/12/07 01:23:40;;;;;;;4.40;4.00;;;;;;;2.89;100.00;96940.38;5073939;28;20218;-53
2023/12/07 01:26:06;;;;;;;4.23;3.83;;;;;;;2.92;100.00;96944.56;5074761;28;20384;-53
2023/12/07 01:28:33;;;;;;;4.60;4.17;;;;;;;2.89;100.00;96942.97;5074895;28;20585;-53
2023/12/07 01:31:01;;;;;;;4.10;3.80;;;;;;;2.83;100.00;96950.34;5074665;28;20554;-52
2023/12/07 01:33:29;;;;;;;4.20;3.90;;;;;;;2.81;100.00;96950.41;5073849;28;20508;-53
2023/12/07 01:35:56;;;;;;;4.27;3.87;;;;;;;2.80;100.00;96953.94;5078808;28;20508;-54
2023/12/07 01:38:23;;;;;;;4.13;3.73;;;;;;;2.76;100.00;96954.22;5077778;28;20309;-54
2023/12/07 01:40:49;;;;;;;4.67;4.17;;;;;;;2.80;100.00;96956.53;5077247;28;20222;-54
2023/12/07 01:43:16;;;;;;;4.10;3.80;;;;;;;2.75;100.00;96956.00;5080606;28;20289;-54
2023/12/07 01:45:43;;;;;;;4.10;3.80;;;;;;;2.72;100.00;96953.56;5077835;28;20238;-54
2023/12/07 01:48:09;;;;;;;4.40;4.10;;;;;;;2.63;100.00;96955.81;5076202;28;20209;-53
2023/12/07 01:50:37;;;;;;;4.43;4.13;;;;;;;2.56;100.00;96963.16;5074910;28;20695;-52
2023/12/07 01:53:05;;;;;;;4.50;4.20;;;;;;;2.60;100.00;96961.22;5078319;28;20256;-54
2023/12/07 01:55:35;;;;;;;5.03;4.53;;;;;;;2.62;100.00;96960.22;5074350;28;20213;-52
2023/12/07 01:58:03;;;;;;;5.47;4.77;;;;;;;2.58;100.00;96963.09;5090327;28;20198;-53
2023/12/07 02:00:32;;;;;;;5.03;4.63;;;;;;;2.52;100.00;96953.81;5085712;28;20210;-53
2023/12/07 02:02:58;;;;;;;5.00;4.50;;;;;;;2.51;100.00;96963.41;5078647;28;20752;-59
2023/12/07 02:05:25;;;;;;;5.23;4.60;;;;;;;2.50;100.00;96961.75;5081184;28;20226;-53
2023/12/07 02:07:53;;;;;;;4.90;4.50;;;;;;;2.53;100.00;96973.78;5079644;28;20733;-53
2023/12/07 02:10:20;;;;;;;5.07;4.67;;;;;;;2.57;100.00;96974.47;5074683;28;20225;-54
2023/12/07 02:12:47;;;;;;;6.00;4.53;;;;;;;2.56;100.00;96967.53;5075554;28;20297;-52
2023/12/07 02:15:14;;;;;;;5.67;5.17;;;;;;;2.61;100.00;96957.69;5074325;28;20202;-52
2023/12/07 02:17:47;;;;;;;6.57;5.00;;;;;;;2.57;100.00;96962.25;5073990;28;20211;-52
2023/12/07 02:20:19;;;;;;;5.73;5.17;;;;;;;2.58;100.00;96963.09;5063825;28;20198;-52
2023/12/07 02:22:51;;;;;;;5.60;5.10;;;;;;;2.52;100.00;96951.22;5087294;28;20201;-54
2023/12/07 02:25:19;;;;;;;5.50;5.00;;;;;;;2.48;100.00;96955.75;5074396;28;20210;-53
2023/12/07 02:27:48;;;;;;;5.90;5.40;;;;;;;2.46;100.00;96959.41;5073899;28;20211;-53
2023/12/07 02:30:15;;;;;;;6.03;5.53;;;;;;;2.46;100.00;96964.63;5074338;28;20214;-52
2023/12/07 02:32:43;;;;;;;6.13;5.60;;;;;;;2.39;100.00;96958.91;5074765;28;20298;-53
2023/12/07 02:35:13;;;;;;;6.57;5.70;;;;;;;2.34;100.00;96960.06;5073947;28;20206;-53
2023/12/07 02:37:43;;;;;;;6.20;5.67;;;;;;;2.24;100.00;96958.91;5074287;28;20210;-53
2023/12/07 02:40:10;;;;;;;6.30;5.70;;;;;;;2.16;100.00;96961.94;5076384;28;20220;-53
2023/12/07 02:42:38;;;;;;;5.93;5.43;;;;;;;2.13;100.00;96956.88;5075612;28;20234;-53
2023/12/07 02:45:09;;;;;;;6.10;5.50;;;;;;;2.10;100.00;96970.09;5075263;28;20601;-53
2023/12/07 02:47:36;;;;;;;6.20;5.60;;;;;;;2.09;100.00;96968.41;5071105;28;20198;-53
2023/12/07 02:50:03;;;;;;;5.60;5.10;;;;;;;2.10;100.00;96966.63;5074112;28;20293;-52
2023/12/07 02:52:30;;;;;;;8.17;6.00;;;;;;;2.03;100.00;96970.50;5076319;28;20218;-53
2023/12/07 02:54:56;;;;;;;5.93;5.43;;;;;;;1.99;100.00;96968.06;5073975;28;20301;-52
2023/12/07 02:57:23;;;;;;;5.40;4.90;;;;;;;1.97;100.00;96966.47;5064693;28;20546;-52
2023/12/07 02:59:49;;;;;;;5.60;5.10;;;;;;;1.97;100.00;96980.38;5076561;28;20722;-53
2023/12/07 03:02:17;;;;;;;5.83;5.33;;;;;;;1.92;100.00;96977.16;5076597;28;20328;-53
2023/12/07 03:04:44;;;;;;;5.70;5.30;;;;;;;1.90;100.00;96976.41;5073560;28;20238;-53
2023/12/07 03:07:11;;;;;;;6.80;6.10;;;;;;;1.82;100.00;96970.75;5076444;28;20210;-51
2023/12/07 03:09:37;;;;;;;5.97;5.47;;;;;;;1.83;100.00;96980.25;5077729;28;20214;-51
2023/12/07 03:12:05;;;;;;;6.60;6.00;;;;;;;1.78;100.00;96965.78;5079610;28;20207;-52
2023/12/07 03:14:32;;;;;;;6.10;5.50;;;;;;;1.79;100.00;96963.09;5082765;28;20227;-51
2023/12/07 03:16:58;;;;;;;6.47;5.87;;;;;;;1.79;100.00;96957.88;5081742;28;20649;-53
2023/12/07 03:19:28;;;;;;;6.60;6.00;;;;;;;1.76;100.00;96958.06;5082745;28;20309;-52
2023/12/07 03:21:55;;;;;;;6.73;6.10;;;;;;;1.73;100.00;96958.22;5074593;28;20285;-51
2023/12/07 03:24:22;;;;;;;6.50;5.90;;;;;;;1.72;100.00;96959.13;5080116;28;20234;-51
2023/12/07 03:26:49;;;;;;;7.23;6.23;;;;;;;1.72;100.00;96959.13;5077114;28;20300;-52
2023/12/07 03:29:15;;;;;;;6.60;6.00;;;;;;;1.74;100.00;96962.47;5078737;28;20297;-53
2023/12/07 03:31:42;;;;;;;6.87;6.27;;;;;;;1.73;100.00;96952.16;5083436;28;20278;-51
2023/12/07 03:34:09;;;;;;;7.47;6.77;;;;;;;1.75;100.00;96961.56;5087101;28;20198;-53
2023/12/07 03:36:37;;;;;;;6.77;6.17;;;;;;;1.73;100.00;96958.22;5076988;28;20216;-53
2023/12/07 03:39:04;;;;;;;8.83;7.37;;;;;;;1.65;100.00;96955.16;5076657;28;20202;-52
2023/12/07 03:41:31;;;;;;;7.63;6.93;;;;;;;1.55;100.00;96959.19;5076424;28;20214;-52
2023/12/07 03:43:57;;;;;;;7.47;6.80;;;;;;;1.54;100.00;96956.66;5075649;28;20210;-53
2023/12/07 03:46:24;;;;;;;7.73;6.93;;;;;;;1.46;100.00;96954.44;5076366;28;20202;-52
2023/12/07 03:48:51;;;;;;;7.63;6.97;;;;;;;1.52;100.00;96956.75;5063137;28;20198;-53
2023/12/07 03:51:17;;;;;;;7.73;6.93;;;;;;;1.59;100.00;96954.66;5068620;28;20202;-52
2023/12/07 03:53:45;;;;;;;7.57;6.87;;;;;;;1.65;100.00;96960.38;5076109;28;20214;-53
2023/12/07 03:56:23;;;;;;;7.80;7.13;;;;;;;1.66;100.00;96967.28;5076344;28;20207;-52
2023/12/07 03:58:49;;;;;;;7.10;6.50;;;;;;;1.64;100.00;96965.66;5075237;28;20216;-54
2023/12/07 04:01:16;;;;;;;8.60;7.80;;;;;;;1.73;100.00;96973.84;5076917;28;20201;-53
2023/12/07 04:03:44;;;;;;;8.27;7.37;;;;;;;1.82;100.00;96970.75;5064740;28;20232;-54
2023/12/07 04:06:10;;;;;;;8.27;7.47;;;;;;;1.89;100.00;96968.66;5076183;28;20317;-52
2023/12/07 04:08:37;;;;;;;8.90;7.70;;;;;;;1.96;100.00;96973.47;5075443;28;20649;-53
2023/12/07 04:11:07;;;;;;;7.97;7.27;;;;;;;2.05;100.00;96963.47;5076400;28;20539;-52
2023/12/07 04:13:34;;;;;;;8.70;7.70;;;;;;;2.08;100.00;96973.72;5076141;28;20214;-53
2023/12/07 04:16:00;;;;;;;9.00;8.10;;;;;;;2.10;100.00;96982.28;5076188;28;20293;-52
2023/12/07 04:18:27;;;;;;;10.70;8.37;;;;;;;2.15;100.00;96980.28;5084109;28;20198;-51
2023/12/07 04:20:54;;;;;;;9.10;8.20;;;;;;;2.22;100.00;96982.47;5075934;28;20297;-53
2023/12/07 04:23:20;;;;;;;9.23;8.33;;;;;;;2.27;100.00;96979.59;5075747;28;20208;-53
2023/12/07 04:25:47;;;;;;;11.63;9.00;;;;;;;2.29;100.00;96988.19;5091055;28;20313;-53
2023/12/07 04:28:15;;;;;;;10.53;9.07;;;;;;;2.34;100.00;96983.56;5087250;28;20232;-53
2023/12/07 04:30:42;;;;;;;10.53;9.43;;;;;;;2.40;100.00;96981.47;5084071;28;20275;-52
2023/12/07 04:33:08;;;;;;;10.60;8.93;;;;;;;2.45;100.00;96983.81;5076016;28;20199;-53
2023/12/07 04:35:35;;;;;;;10.00;9.00;;;;;;;2.42;100.00;96974.38;5086477;28;20206;-52
2023/12/07 04:38:02;;;;;;;10.63;9.63;;;;;;;2.48;100.00;96973.19;5081562;28;20293;-53
2023/12/07 04:40:28;;;;;;;10.50;9.40;;;;;;;2.50;100.00;96963.53;5091391;28;20224;-53
2023/12/07 04:42:55;;;;;;;9.93;8.93;;;;;;;2.53;100.00;96965.97;5073614;28;20221;-53
2023/12/07 04:45:23;;;;;;;8.63;7.83;;;;;;;2.54;100.00;96970.25;5075421;28;20218;-54
2023/12/07 04:47:49;;;;;;;9.87;8.87;;;;;;;2.52;100.00;96974.72;5068814;28;20218;-53
2023/12/07 04:50:16;;;;;;;10.40;9.40;;;;;;;2.50;100.00;96971.34;5073936;28;20202;-53
2023/12/07 04:52:43;;;;;;;11.03;8.77;;;;;;;2.49;100.00;96964.44;5075003;28;20892;-52
2023/12/07 04:55:09;;;;;;;9.70;8.73;;;;;;;2.45;100.00;96968.16;5075033;28;20710;-53
2023/12/07 04:57:36;;;;;;;9.57;8.67;;;;;;;2.51;100.00;96967.81;5075457;28;20206;-53
2023/12/07 05:00:09;;;;;;;9.30;8.40;;;;;;;2.49;100.00;96964.44;5075909;28;20236;-52
2023/12/07 05:02:38;;;;;;;9.80;8.90;;;;;;;2.55;100.00;96960.66;5074713;28;20234;-52
2023/12/07 05:05:06;;;;;;;9.80;8.73;;;;;;;2.58;100.00;96956.13;5074728;28;20574;-53
2023/12/07 05:07:32;;;;;;;9.00;8.10;;;;;;;2.59;100.00;96955.16;5074497;28;20217;-53
2023/12/07 05:09:59;;;;;;;10.13;9.13;;;;;;;2.59;100.00;96949.94;5074957;28;20198;-52
2023/12/07 05:12:26;;;;;;;10.23;9.23;;;;;;;2.61;100.00;96957.69;5075131;28;20559;-54
2023/12/07 05:14:52;;;;;;;9.33;8.43;;;;;;;2.63;100.00;96956.66;5074679;28;20217;-53
2023/12/07 05:17:19;;;;;;;9.50;8.50;;;;;;;2.67;100.00;96962.56;5075326;28;20215;-53
2023/12/07 05:19:47;;;;;;;10.07;9.07;;;;;;;2.69;100.00;96961.56;5074908;28;20221;-52
2023/12/07 05:22:15;;;;;;;9.27;8.37;;;;;;;2.71;100.00;96961.47;5067864;28;20542;-52
2023/12/07 05:24:42;;;;;;;10.23;9.00;;;;;;;2.69;100.00;96950.28;5075771;28;20719;-53
2023/12/07 05:27:10;;;;;;;10.70;9.60;;;;;;;2.73;100.00;96952.59;5076946;28;20214;-53
2023/12/07 05:29:37;;;;;;;10.30;9.30;;;;;;;2.75;100.00;96949.91;5073971;28;20206;-53
2023/12/07 05:32:03;;;;;;;10.90;9.20;;;;;;;2.82;100.00;96951.25;5078334;28;20233;-53
2023/12/07 05:34:30;;;;;;;10.73;9.73;;;;;;;2.79;100.00;96954.88;5076167;28;20221;-53
2023/12/07 05:36:58;;;;;;;10.63;9.57;;;;;;;2.78;100.00;96954.97;5075547;28;20301;-52
2023/12/07 05:39:25;;;;;;;11.90;10.00;;;;;;;2.78;100.00;96945.34;5075045;28;20213;-52
2023/12/07 05:41:52;;;;;;;11.23;9.67;;;;;;;2.82;100.00;96951.25;5074787;28;20214;-52
2023/12/07 05:44:22;;;;;;;11.63;10.43;;;;;;;2.81;100.00;96950.41;5075166;28;20630;-52
2023/12/07 05:46:48;;;;;;;11.60;10.40;;;;;;;2.85;100.00;96946.69;5075104;28;20272;-53
2023/12/07 05:49:15;;;;;;;10.57;9.57;;;;;;;2.81;100.00;96947.78;5062398;28;20209;-51
2023/12/07 05:51:42;;;;;;;10.07;9.07;;;;;;;2.83;100.00;96953.78;5079137;28;20201;-53
2023/12/07 05:54:10;;;;;;;10.97;9.87;;;;;;;2.83;100.00;96952.94;5074736;28;20206;-54
2023/12/07 05:56:37;;;;;;;9.90;9.00;;;;;;;2.79;100.00;96951.44;5076398;28;20289;-53
2023/12/07 05:59:03;;;;;;;10.27;9.27;;;;;;;2.77;100.00;96951.50;5074425;28;20205;-53
2023/12/07 06:01:30;;;;;;;10.70;9.60;;;;;;;2.70;100.00;96955.41;5074469;28;20237;-53
2023/12/07 06:03:57;;;;;;;10.60;9.50;;;;;;;2.65;100.00;96957.44;5080715;28;20206;-53
2023/12/07 06:06:25;;;;;;;10.60;9.50;;;;;;;2.66;100.00;96951.28;5079654;28;20253;-52
2023/12/07 06:08:52;;;;;;;10.43;9.43;;;;;;;2.59;100.00;96952.53;5073641;28;20293;-54
2023/12/07 06:11:21;;;;;;;11.17;9.07;;;;;;;2.52;100.00;96948.59;5075554;28;20218;-52
2023/12/07 06:13:47;;;;;;;11.00;9.20;;;;;;;2.38;100.00;96958.97;5065076;28;20202;-52
2023/12/07 06:16:14;;;;;;;10.40;8.97;;;;;;;2.45;100.00;96953.34;5084586;28;20209;-52
2023/12/07 06:18:41;;;;;;;10.00;9.00;;;;;;;2.46;100.00;96949.81;5081372;28;20234;-53
2023/12/07 06:21:07;;;;;;;10.53;9.43;;;;;;;2.45;100.00;96944.66;5075090;28;20210;-53
2023/12/07 06:23:35;;;;;;;9.27;8.33;;;;;;;2.46;100.00;96948.97;5074815;28;20206;-54
2023/12/07 06:26:05;;;;;;;9.87;8.90;;;;;;;2.47;100.00;96950.66;5074288;28;20675;-53
2023/12/07 06:28:33;;;;;;;10.23;9.17;;;;;;;2.55;100.00;96961.47;5071339;28;20285;-52
2023/12/07 06:31:06;;;;;;;12.17;9.13;;;;;;;2.56;100.00;96967.53;5075112;28;20205;-53
2023/12/07 06:33:34;;;;;;;11.27;10.17;;;;;;;2.55;100.00;96953.66;5074842;28;20206;-52
2023/12/07 06:36:03;;;;;;;13.50;11.77;;;;;;;2.57;100.00;96971.84;5074875;28;20195;-53
2023/12/07 06:38:29;;;;;;;14.57;12.33;;;;;;;2.60;100.00;96962.06;5074304;28;20230;-53
2023/12/07 06:40:58;;;;;;;18.17;13.20;;;;;;;2.58;100.00;96960.47;5074550;28;20203;-54
2023/12/07 06:43:24;;;;;;;16.10;13.50;;;;;;;2.56;100.00;96971.00;5075119;28;20221;-54
2023/12/07 06:45:52;;;;;;;17.73;13.70;;;;;;;2.52;100.00;96966.88;5089778;28;20237;-54
2023/12/07 06:48:19;;;;;;;14.23;12.50;;;;;;;2.55;100.00;96958.88;5097881;28;20194;-53
2023/12/07 06:50:48;;;;;;;16.87;13.27;;;;;;;2.47;100.00;96976.75;5097667;28;20237;-53
2023/12/07 06:53:18;;;;;;;15.23;13.63;;;;;;;2.53;100.00;96971.19;5090682;28;20566;-54
2023/12/07 06:55:44;;;;;;;16.20;14.17;;;;;;;2.55;100.00;96971.91;5078929;28;20274;-54
2023/12/07 06:58:12;;;;;;;18.33;14.73;;;;;;;2.41;100.00;96970.09;5087199;28;20301;-54
2023/12/07 07:00:39;;;;;;;15.97;13.97;;;;;;;2.38;100.00;96972.88;5070457;28;20293;-53
2023/12/07 07:03:09;;;;;;;16.57;14.10;;;;;;;2.39;100.00;96965.88;5079063;28;20230;-53
2023/12/07 07:05:35;;;;;;;19.83;14.57;;;;;;;2.40;100.00;96975.41;5088073;28;20299;-53
2023/12/07 07:08:02;;;;;;;18.60;15.20;;;;;;;2.36;100.00;96973.88;5095761;28;20657;-54
2023/12/07 07:10:30;;;;;;;19.63;16.13;;;;;;;2.40;100.00;96983.25;5099240;28;20238;-53
2023/12/07 07:13:01;;;;;;;16.70;14.77;;;;;;;2.40;100.00;96980.63;5081614;28;20302;-53
2023/12/07 07:15:28;;;;;;;25.03;14.57;;;;;;;2.38;100.00;96982.47;5076497;28;20206;-53
2023/12/07 07:17:56;;;;;;;16.43;14.70;;;;;;;2.40;100.00;96988.47;5077691;28;20294;-52
2023/12/07 07:20:27;;;;;;;18.50;15.80;;;;;;;2.36;100.00;96979.97;5077384;28;20202;-53
2023/12/07 07:22:53;;;;;;;19.20;16.10;;;;;;;2.31;100.00;96976.75;5088775;28;20206;-53
2023/12/07 07:25:21;;;;;;;18.77;15.40;;;;;;;2.30;100.00;96969.03;5100043;28;20249;-53
2023/12/07 07:27:48;;;;;;;26.87;15.43;;;;;;;2.13;100.00;96971.69;5100398;28;20190;-53
2023/12/07 07:30:15;;;;;;;18.53;15.00;;;;;;;2.11;100.00;96969.19;5100484;28;20190;-53
2023/12/07 07:32:42;;;;;;;18.83;14.20;;;;;;;2.18;100.00;96964.47;5103202;28;20190;-53
2023/12/07 07:35:11;;;;;;;18.47;15.07;;;;;;;2.10;100.00;96957.06;5110130;28;20246;-53
2023/12/07 07:37:39;;;;;;;18.93;14.87;;;;;;;2.10;100.00;96959.66;5112373;28;20212;-53
2023/12/07 07:40:07;;;;;;;18.63;14.53;;;;;;;2.16;100.00;96961.13;5109375;28;20214;-52
2023/12/07 07:42:34;;;;;;;24.23;15.43;;;;;;;2.09;100.00;96960.56;5100757;28;20202;-52
2023/12/07 07:45:01;;;;;;;23.97;15.10;;;;;;;2.05;100.00;96960.84;5090991;28;20310;-54
2023/12/07 07:47:29;;;;;;;18.23;13.90;;;;;;;1.92;100.00;96963.25;5073682;28;20195;-53
2023/12/07 07:49:56;;;;;;;22.67;14.10;;;;;;;1.95;100.00;96970.91;5071735;28;20207;-52
2023/12/07 07:52:22;;;;;;;16.73;14.87;;;;;;;1.87;100.00;96965.28;5077121;28;20202;-52
2023/12/07 07:54:50;;;;;;;17.80;14.07;;;;;;;1.91;100.00;96962.41;5076672;28;20207;-54
2023/12/07 07:57:17;;;;;;;19.30;15.27;;;;;;;1.96;100.00;96955.19;5076632;28;20289;-54
2023/12/07 07:59:44;;;;;;;16.63;13.87;;;;;;;1.94;100.00;96959.66;5076663;28;20591;-52
2023/12/07 08:02:10;;;;;;;21.20;15.10;;;;;;;1.97;100.00;96962.09;5064370;28;20242;-54
2023/12/07 08:04:37;;;;;;;16.43;13.60;;;;;;;2.09;100.00;96959.75;5076485;28;20203;-52
2023/12/07 08:07:04;;;;;;;17.33;14.17;;;;;;;2.06;100.00;96965.97;5076435;28;20244;-54
2023/12/07 08:09:31;;;;;;;19.50;15.30;;;;;;;2.05;100.00;96963.47;5076095;28;20240;-54
2023/12/07 08:12:01;;;;;;;19.10;14.73;;;;;;;2.06;100.00;96972.94;5076284;28;20202;-54
2023/12/07 08:14:27;;;;;;;17.03;14.90;;;;;;;2.08;100.00;96977.19;5075387;28;20214;-52
2023/12/07 08:16:55;;;;;;;18.70;15.23;;;;;;;1.94;100.00;96977.94;5075977;28;20646;-54
2023/12/07 08:19:22;;;;;;;17.67;14.83;;;;;;;2.04;100.00;96970.44;5075952;28;20210;-53
2023/12/07 08:21:49;;;;;;;19.10;14.47;;;;;;;2.01;100.00;96970.59;5076124;28;20202;-54
2023/12/07 08:24:16;;;;;;;17.00;14.27;;;;;;;2.07;100.00;96961.59;5075265;28;20209;-54
2023/12/07 08:26:44;;;;;;;16.97;14.57;;;;;;;2.09;100.00;96967.59;5075999;28;20226;-53
2023/12/07 08:29:12;;;;;;;17.00;14.53;;;;;;;2.05;100.00;96963.47;5075567;28;20221;-54
2023/12/07 08:31:40;;;;;;;18.93;15.33;;;;;;;2.08;100.00;96958.06;5076254;28;20210;-55
2023/12/07 08:34:07;;;;;;;17.13;13.73;;;;;;;2.13;100.00;96950.81;5076104;28;20297;-52
2023/12/07 08:36:33;;;;;;;19.70;14.50;;;;;;;2.07;100.00;96948.56;5075858;28;20543;-53
2023/12/07 08:39:00;;;;;;;17.13;14.30;;;;;;;2.16;100.00;96938.44;5075494;28;20209;-54
2023/12/07 08:41:27;;;;;;;18.97;14.97;;;;;;;2.27;100.00;96937.84;5075926;28;20593;-54
2023/12/07 08:43:56;;;;;;;18.70;15.10;;;;;;;2.35;100.00;96944.34;5078112;28;20224;-53
2023/12/07 08:46:25;;;;;;;18.93;14.37;;;;;;;2.28;100.00;96944.75;5085560;28;20254;-51
2023/12/07 08:48:52;;;;;;;17.10;14.20;;;;;;;2.31;100.00;96945.44;5064076;28;20202;-52
2023/12/07 08:51:20;;;;;;;16.93;14.70;;;;;;;2.35;100.00;96935.66;5075595;28;20198;-54
2023/12/07 08:53:47;;;;;;;16.50;13.83;;;;;;;2.37;100.00;96924.22;5074789;28;20639;-54
2023/12/07 08:56:14;;;;;;;17.57;13.57;;;;;;;2.46;100.00;96922.84;5075555;28;20212;-53
2023/12/07 08:58:41;;;;;;;21.63;14.87;;;;;;;2.45;100.00;96926.38;5075248;28;20549;-54
2023/12/07 09:01:07;;;;;;;19.63;14.07;;;;;;;2.55;100.00;96932.75;5075728;28;20313;-54
2023/12/07 09:03:37;;;;;;;16.97;14.07;;;;;;;2.60;100.00;96929.91;5077748;28;20263;-54
2023/12/07 09:06:06;;;;;;;17.23;13.73;;;;;;;2.68;100.00;96933.78;5077366;28;20292;-54
2023/12/07 09:08:33;;;;;;;19.13;13.70;;;;;;;2.72;100.00;96943.09;5076740;28;20249;-54
2023/12/07 09:10:59;;;;;;;18.17;14.43;;;;;;;2.69;100.00;96964.19;5078686;28;20304;-54
2023/12/07 09:13:27;;;;;;;19.33;14.20;;;;;;;2.81;100.00;96963.47;5078175;28;20297;-54
2023/12/07 09:15:54;;;;;;;17.93;14.63;;;;;;;2.85;100.00;96967.59;5077192;28;20212;-54
2023/12/07 09:18:21;;;;;;;20.60;14.27;;;;;;;2.89;100.00;96956.03;5082262;28;20217;-54
2023/12/07 09:20:50;;;;;;;18.63;14.70;;;;;;;2.76;100.00;96947.22;5082222;28;20288;-55
2023/12/07 09:23:18;;;;;;;20.17;14.43;;;;;;;2.80;100.00;96943.50;5093639;28;20217;-54
2023/12/07 09:25:44;;;;;;;17.80;14.23;;;;;;;2.81;100.00;96933.88;5078363;28;20309;-54
2023/12/07 09:28:11;;;;;;;19.83;15.13;;;;;;;2.77;100.00;96941.06;5080832;28;20292;-53
2023/12/07 09:30:39;;;;;;;20.60;15.27;;;;;;;2.71;100.00;96943.19;5081712;28;20293;-53
2023/12/07 09:33:07;;;;;;;19.60;14.80;;;;;;;2.75;100.00;96947.31;5078927;28;20209;-53
2023/12/07 09:35:35;;;;;;;18.57;15.07;;;;;;;2.73;100.00;96938.72;5079026;28;20203;-53
2023/12/07 09:38:03;;;;;;;17.73;13.90;;;;;;;2.54;100.00;96936.31;5075868;28;20202;-52
2023/12/07 09:40:32;;;;;;;17.57;14.40;;;;;;;2.49;100.00;96933.97;5074429;28;20215;-53
2023/12/07 09:42:58;;;;;;;16.97;13.87;;;;;;;2.45;100.00;96932.44;5072985;28;20206;-55
2023/12/07 09:45:26;;;;;;;18.80;14.60;;;;;;;2.36;100.00;96934.75;5075166;28;20220;-52
2023/12/07 09:47:56;;;;;;;17.23;13.77;;;;;;;2.31;100.00;96937.59;5063665;28;20230;-54
2023/12/07 09:50:24;;;;;;;17.40;14.30;;;;;;;2.38;100.00;96940.72;5072636;28;20202;-53
2023/12/07 09:52:51;;;;;;;17.10;14.13;;;;;;;2.39;100.00;96935.41;5072906;28;20654;-54
2023/12/07 09:55:22;;;;;;;16.03;14.10;;;;;;;2.39;100.00;96929.34;5073308;28;20218;-54
2023/12/07 09:57:49;;;;;;;19.00;14.23;;;;;;;2.46;100.00;96935.91;5074564;28;20202;-54
2023/12/07 10:00:17;;;;;;;18.83;15.27;;;;;;;2.47;100.00;96929.78;5074611;28;20210;-53
2023/12/07 10:02:47;;;;;;;17.13;14.83;;;;;;;2.44;100.00;96922.13;5074199;28;20234;-54
2023/12/07 10:05:16;;;;;;;17.37;14.43;;;;;;;2.45;100.00;96919.41;5074648;28;20205;-53
2023/12/07 10:07:44;;;;;;;18.23;14.60;;;;;;;2.28;100.00;96913.44;5074054;28;20311;-54
2023/12/07 10:10:12;;;;;;;15.87;13.90;;;;;;;2.30;100.00;96911.63;5073714;28;20214;-55
2023/12/07 10:12:47;;;;;;;17.97;15.33;;;;;;;2.34;100.00;96902.66;5074474;28;20554;-54
2023/12/07 10:15:16;;;;;;;18.73;15.27;;;;;;;2.29;100.00;96889.91;5074646;28;20527;-54
2023/12/07 10:17:50;;;;;;;19.13;15.60;;;;;;;2.35;100.00;96888.69;5078203;28;20293;-54
2023/12/07 10:20:18;;;;;;;18.13;15.40;;;;;;;2.35;100.00;96880.88;5068650;28;20273;-54
2023/12/07 10:22:46;;;;;;;17.03;14.60;;;;;;;2.33;100.00;96880.13;5077836;28;20241;-53
2023/12/07 10:25:13;;;;;;;17.87;14.83;;;;;;;2.42;100.00;96879.59;5078486;28;20209;-54
2023/12/07 10:27:43;;;;;;;21.87;16.17;;;;;;;2.49;100.00;96876.53;5077993;28;20233;-54
2023/12/07 10:30:11;;;;;;;17.90;15.00;;;;;;;2.48;100.00;96874.00;5078306;28;20206;-52
2023/12/07 10:32:38;;;;;;;17.27;14.50;;;;;;;2.55;100.00;96864.91;5078056;28;20210;-55
2023/12/07 10:35:08;;;;;;;16.80;13.70;;;;;;;2.68;100.00;96871.09;5078148;28;20218;-54
2023/12/07 10:37:36;;;;;;;16.73;14.13;;;;;;;2.82;100.00;96858.06;5077432;28;20589;-54
2023/12/07 10:40:05;;;;;;;15.57;13.90;;;;;;;2.97;100.00;96865.00;5077935;28;20217;-52
2023/12/07 10:42:35;;;;;;;17.30;13.80;;;;;;;3.07;100.00;96875.75;5077755;28;20220;-54
2023/12/07 10:45:05;;;;;;;15.87;13.30;;;;;;;3.22;100.00;96884.44;5078732;28;20600;-53
2023/12/07 10:47:35;;;;;;;15.13;13.50;;;;;;;3.24;100.00;96882.56;5069752;28;20542;-54
2023/12/07 10:50:01;;;;;;;14.67;12.43;;;;;;;3.26;100.00;96885.94;5072704;28;20293;-55
2023/12/07 10:52:30;;;;;;;13.70;12.23;;;;;;;3.25;100.00;96884.25;5078203;28;20202;-54
2023/12/07 10:55:02;;;;;;;15.53;13.87;;;;;;;3.31;100.00;96876.88;5079200;28;20304;-54
2023/12/07 10:57:30;;;;;;;13.27;11.87;;;;;;;3.33;100.00;96876.78;5073720;28;20256;-53
2023/12/07 11:00:00;;;;;;;14.93;12.47;;;;;;;3.34;100.00;96870.59;5096423;28;20229;-54
2023/12/07 11:02:28;;;;;;;14.17;12.67;;;;;;;3.22;100.00;96871.38;5092855;28;20270;-53
2023/12/07 11:04:58;;;;;;;13.60;12.23;;;;;;;3.25;100.00;96871.19;5076071;28;20215;-54
2023/12/07 11:07:26;;;;;;;15.80;12.23;;;;;;;3.26;100.00;96867.66;5076931;28;20226;-53
2023/12/07 11:09:59;;;;;;;13.87;12.40;;;;;;;3.35;100.00;96867.91;5077714;28;20554;-54
2023/12/07 11:12:30;;;;;;;13.53;12.13;;;;;;;3.55;100.00;96858.00;5077650;28;20209;-55
2023/12/07 11:14:56;;;;;;;15.30;12.33;;;;;;;3.76;100.00;96854.03;5077365;28;20643;-54
2023/12/07 11:17:23;;;;;;;14.23;12.83;;;;;;;3.74;100.00;96841.06;5093356;28;20206;-52
2023/12/07 11:19:52;;;;;;;15.47;13.03;;;;;;;3.71;100.00;96840.44;5098487;28;20241;-54
2023/12/07 11:22:22;;;;;;;13.57;12.20;;;;;;;3.71;100.00;96838.66;5097591;28;20206;-53
2023/12/07 11:24:57;;;;;;;14.43;11.67;;;;;;;3.51;100.00;96831.19;5075309;28;20247;-53